North Chatham, Massachusetts
Current Conditions -  °F | °C
As of 12:52 AM on Wednesday 22 Oct 2014 (Local Time) from KCQX Reporting Station
Scattered Clouds Scattered Clouds  
Wind Chill: 55°   Ceiling: Unl
Heat Index: 55°   Visibility: 9mi
Dew Point: 54°   Wind: 3mph
Humidity: 96%   Direction: 40°NE
Pressure: 29.95"   Gusts: NA
Location:  41.7°N, 69.95°W
Report Text: KCQX 220452Z AUTO 04003KT 9SM SCT004 13/12 A2995 RMK AO2 SLP141 T01280122 401500122
Loading
Personal Weather Stations






























Interactive Weather Map
Tropical Storm Tracking
New forecast layout! Learn more

10-Day Weather Forecast

Advertisements
Track Severe Weather on mobile